Time;durP1;ratioP1;P1;durP2;ratioP2;P2;SDS_P1;SDS_P2;PMS_P1;PMS_P2;Temp;Humidity;BMP_temperature;BMP_pressure;BME280_temperature;BME280_humidity;BME280_pressure;Samples;Min_cycle;Max_cycle;Signal;HPM_P1;HPM_P2
2021/12/22 00:01:30;;;;;;;111.93;95.45;;;;;;;-7.24;100.00;102245.94;4978256;28;20074;-80
2021/12/22 00:03:58;;;;;;;119.57;99.45;;;;;;;-7.18;100.00;102253.47;4979165;28;20047;-79
2021/12/22 00:06:29;;;;;;;110.60;95.20;;;;;;;-7.42;100.00;102252.59;4978831;28;20121;-79
2021/12/22 00:08:57;;;;;;;100.32;89.57;;;;;;;-7.29;100.00;102248.69;4977786;28;20547;-78
2021/12/22 00:11:24;;;;;;;93.15;82.95;;;;;;;-7.17;100.00;102258.59;4979274;28;20471;-80
2021/12/22 00:13:51;;;;;;;92.88;83.50;;;;;;;-7.18;100.00;102256.06;4979515;28;20058;-80
2021/12/22 00:16:18;;;;;;;97.30;87.72;;;;;;;-7.25;100.00;102252.84;4979391;28;20043;-79
2021/12/22 00:18:46;;;;;;;88.60;80.13;;;;;;;-7.15;100.00;102261.94;4974944;28;20464;-79
2021/12/22 00:21:14;;;;;;;86.10;77.75;;;;;;;-7.17;100.00;102258.59;4977194;28;20047;-79
2021/12/22 00:23:42;;;;;;;86.97;78.47;;;;;;;-7.09;100.00;102267.81;4976850;28;20138;-79
2021/12/22 00:26:09;;;;;;;89.97;81.28;;;;;;;-7.18;100.00;102266.38;4977974;28;20061;-79
2021/12/22 00:28:36;;;;;;;85.50;77.53;;;;;;;-7.14;100.00;102262.78;4980413;28;20051;-79
2021/12/22 00:31:10;;;;;;;86.15;78.05;;;;;;;-7.10;100.00;102268.72;4978814;28;20395;-80
2021/12/22 00:33:45;;;;;;;89.53;81.07;;;;;;;-7.19;100.00;102259.53;4980043;28;20078;-78
2021/12/22 00:38:34;;;;;;;91.50;82.97;;;;;;;-7.19;100.00;102280.22;5084445;27;20398;-80
2021/12/22 00:41:01;;;;;;;93.05;84.63;;;;;;;-7.12;100.00;102275.66;5080101;28;20048;-81
2021/12/22 00:43:27;;;;;;;81.70;73.53;;;;;;;-7.15;100.00;102277.44;5091630;28;20040;-79
2021/12/22 00:45:56;;;;;;;83.32;74.72;;;;;;;-7.16;100.00;102280.94;5079102;28;20053;-79
2021/12/22 00:48:23;;;;;;;87.07;78.82;;;;;;;-7.06;100.00;102278.88;5074965;28;20137;-80
2021/12/22 00:50:49;;;;;;;92.07;83.60;;;;;;;-7.06;100.00;102284.03;5078064;28;20045;-79
2021/12/22 00:53:17;;;;;;;91.57;82.80;;;;;;;-7.17;100.00;102292.16;5077781;28;20048;-79
2021/12/22 00:55:45;;;;;;;88.78;80.80;;;;;;;-7.51;100.00;102294.19;5081706;28;20052;-81
2021/12/22 00:58:12;;;;;;;86.18;78.18;;;;;;;-7.45;100.00;102297.41;5083834;28;20048;-79
2021/12/22 01:00:39;;;;;;;89.43;81.07;;;;;;;-7.58;100.00;102284.97;5082498;28;20086;-81
2021/12/22 01:03:06;;;;;;;93.57;85.28;;;;;;;-7.44;100.00;102287.94;5085426;28;20078;-81
2021/12/22 01:05:33;;;;;;;91.45;83.45;;;;;;;-7.61;100.00;102293.66;5081707;28;20045;-79
2021/12/22 01:08:00;;;;;;;91.78;83.45;;;;;;;-7.81;100.00;102288.28;5064884;28;20374;-80
2021/12/22 01:10:29;;;;;;;95.18;86.85;;;;;;;-7.54;100.00;102294.28;5080621;28;20048;-80
2021/12/22 01:13:00;;;;;;;95.05;86.72;;;;;;;-7.63;100.00;102282.53;5080677;28;20125;-81
2021/12/22 01:15:27;;;;;;;92.72;83.78;;;;;;;-7.73;100.00;102288.91;5069167;28;20048;-81
2021/12/22 01:18:00;;;;;;;86.43;78.65;;;;;;;-7.99;100.00;102285.41;5080509;28;20052;-80
2021/12/22 01:20:31;;;;;;;89.10;80.65;;;;;;;-8.21;100.00;102282.66;5078372;28;20045;-81
2021/12/22 01:23:02;;;;;;;85.28;77.05;;;;;;;-8.15;100.00;102279.03;5072133;28;20048;-80
2021/12/22 01:25:31;;;;;;;89.45;81.00;;;;;;;-8.10;100.00;102280.59;5079869;28;20128;-81
2021/12/22 01:27:59;;;;;;;92.53;84.15;;;;;;;-8.22;100.00;102280.97;5081716;28;20056;-80
2021/12/22 01:32:49;;;;;;;98.90;88.07;;;;;;;-8.08;100.00;102273.66;5083084;27;20421;-79
2021/12/22 01:40:11;;;;;;;92.30;83.15;;;;;;;-8.26;100.00;102276.78;5084278;27;20472;-79
2021/12/22 01:42:39;;;;;;;89.13;80.57;;;;;;;-8.19;100.00;102275.72;5082524;28;20045;-80
2021/12/22 01:45:27;;;;;;;97.55;88.72;;;;;;;-8.20;100.00;102270.59;5076148;28;20107;-80
2021/12/22 02:27:28;;;;;;;107.05;88.15;;;;;;;-8.59;100.00;102264.06;5082681;27;20377;-81
2021/12/22 05:54:31;;;;;;;99.13;86.32;;;;;;;-8.11;100.00;102334.78;5128804;27;20559;-80
2021/12/22 05:56:57;;;;;;;98.93;87.78;;;;;;;-8.80;100.00;102339.38;5124010;28;20116;-79
2021/12/22 05:59:24;;;;;;;101.35;90.63;;;;;;;-7.27;100.00;102347.59;5123772;28;20548;-80
2021/12/22 21:43:13;;;;;;;249.27;133.25;;;;;;;-8.94;100.00;102403.28;4841397;27;8273892;-80
